createdAt,value
2022-09-07T00:01:10.248Z,15.80
2022-09-07T00:03:37.169Z,15.90
2022-09-07T00:06:10.712Z,15.90
2022-09-07T00:08:38.117Z,16.20
2022-09-07T00:11:10.429Z,16.20
2022-09-07T00:13:39.202Z,16.10
2022-09-07T00:16:08.634Z,16.10
2022-09-07T00:18:35.971Z,16.10
2022-09-07T00:21:05.621Z,16.10
2022-09-07T00:23:33.751Z,16.00
2022-09-07T00:26:02.361Z,16.10
2022-09-07T00:28:30.131Z,16.30
2022-09-07T00:30:59.925Z,16.30
2022-09-07T00:33:27.204Z,16.20
2022-09-07T00:35:54.206Z,16.30
2022-09-07T00:38:21.155Z,16.50
2022-09-07T00:40:47.886Z,16.50
2022-09-07T00:43:46.360Z,16.30
2022-09-07T00:46:24.684Z,16.30
2022-09-07T00:49:03.099Z,16.30
2022-09-07T00:51:52.414Z,16.30
2022-09-07T00:54:23.793Z,16.30
2022-09-07T00:56:52.855Z,16.40
2022-09-07T00:59:26.720Z,16.40
2022-09-07T01:01:53.943Z,16.40
2022-09-07T01:04:22.157Z,16.30
2022-09-07T01:06:49.931Z,16.30
2022-09-07T01:09:22.232Z,16.40
2022-09-07T01:11:51.122Z,16.40
2022-09-07T01:14:23.625Z,16.30
2022-09-07T01:16:53.221Z,16.20
2022-09-07T01:19:38.803Z,16.20
2022-09-07T01:22:28.457Z,16.40
2022-09-07T01:25:04.636Z,16.40
2022-09-07T01:27:56.301Z,16.40
2022-09-07T01:30:24.539Z,16.20
2022-09-07T01:33:00.158Z,16.10
2022-09-07T01:35:45.150Z,15.90
2022-09-07T01:38:30.671Z,15.90
2022-09-07T01:41:11.389Z,16.00
2022-09-07T01:43:57.516Z,16.10
2022-09-07T01:46:30.345Z,15.90
2022-09-07T01:49:06.463Z,15.80
2022-09-07T01:51:37.380Z,15.80
2022-09-07T01:54:28.068Z,15.80
2022-09-07T01:57:01.101Z,15.80
2022-09-07T01:59:36.909Z,15.90
2022-09-07T02:02:06.719Z,15.80
2022-09-07T02:04:58.256Z,15.80
2022-09-07T02:07:32.457Z,15.90
2022-09-07T02:10:12.576Z,15.90
2022-09-07T02:12:53.111Z,15.90
2022-09-07T02:15:31.638Z,16.00
2022-09-07T02:18:04.435Z,16.10
2022-09-07T02:20:38.863Z,16.10
2022-09-07T02:23:13.884Z,16.20
2022-09-07T02:25:48.487Z,16.20
2022-09-07T02:28:20.681Z,16.20
2022-09-07T02:30:47.812Z,16.40
2022-09-07T02:33:14.679Z,16.30
2022-09-07T02:35:41.624Z,16.20
2022-09-07T02:38:08.429Z,16.30
2022-09-07T02:40:35.851Z,16.30
2022-09-07T02:43:06.449Z,16.30
2022-09-07T02:45:56.654Z,16.20
2022-09-07T02:48:51.428Z,16.30
2022-09-07T02:51:34.432Z,16.20
2022-09-07T02:54:16.257Z,16.20
2022-09-07T02:57:05.113Z,16.30
2022-09-07T03:00:00.143Z,16.30
2022-09-07T03:02:36.323Z,16.10
2022-09-07T03:05:21.697Z,16.20
2022-09-07T03:08:01.238Z,16.20
2022-09-07T03:10:29.033Z,16.10
2022-09-07T03:12:55.983Z,16.10
2022-09-07T03:15:25.639Z,16.20
2022-09-07T03:17:53.132Z,16.20
2022-09-07T03:20:20.885Z,16.20
2022-09-07T03:22:49.423Z,16.00
2022-09-07T03:25:16.567Z,16.10
2022-09-07T03:27:43.435Z,16.10
2022-09-07T03:30:11.946Z,16.20
2022-09-07T03:32:39.051Z,16.00
2022-09-07T03:35:08.443Z,15.90
2022-09-07T03:37:38.564Z,15.90
2022-09-07T03:40:08.991Z,16.10
2022-09-07T03:42:36.417Z,16.20
2022-09-07T03:45:04.004Z,16.20
2022-09-07T03:47:30.988Z,16.10
2022-09-07T03:49:57.698Z,16.10
2022-09-07T03:52:24.393Z,16.10
2022-09-07T03:54:51.130Z,16.10
2022-09-07T03:57:20.169Z,16.10
2022-09-07T03:59:47.470Z,15.90
2022-09-07T04:02:14.359Z,16.10
2022-09-07T04:04:42.724Z,16.00
2022-09-07T04:07:13.203Z,15.90
2022-09-07T04:09:39.960Z,16.10
2022-09-07T04:12:07.086Z,16.00
2022-09-07T04:14:33.843Z,15.90
2022-09-07T04:17:00.711Z,16.00
2022-09-07T04:19:27.672Z,16.10
2022-09-07T04:21:54.410Z,15.90
2022-09-07T04:24:21.115Z,16.10
2022-09-07T04:26:47.835Z,16.00
2022-09-07T04:29:14.561Z,16.00
2022-09-07T04:31:41.291Z,16.10
2022-09-07T04:34:08.035Z,16.00
2022-09-07T04:36:34.902Z,15.90
2022-09-07T04:39:04.268Z,15.90
2022-09-07T04:41:32.456Z,16.00
2022-09-07T04:44:02.153Z,16.00
2022-09-07T04:46:35.006Z,16.00
2022-09-07T04:49:08.431Z,16.00
2022-09-07T04:51:36.030Z,16.00
2022-09-07T04:54:03.859Z,16.00
2022-09-07T04:56:31.779Z,16.00
2022-09-07T04:58:59.688Z,16.00
2022-09-07T05:01:26.819Z,16.00
2022-09-07T05:03:53.813Z,16.00
2022-09-07T05:06:22.237Z,16.10
2022-09-07T05:08:51.879Z,16.10
2022-09-07T05:11:23.827Z,16.10
2022-09-07T05:13:55.233Z,16.10
2022-09-07T05:16:23.626Z,16.20
2022-09-07T05:18:59.107Z,16.30
2022-09-07T05:21:28.517Z,16.20
2022-09-07T05:23:56.821Z,16.30
2022-09-07T05:26:26.822Z,16.30
2022-09-07T05:31:40.429Z,16.40
2022-09-07T05:36:53.889Z,16.50
2022-09-07T05:39:21.169Z,16.60
2022-09-07T05:41:48.041Z,16.80
2022-09-07T05:44:45.189Z,16.70
2022-09-07T05:47:01.441Z,16.80
2022-09-07T05:49:28.214Z,16.70
2022-09-07T05:51:54.981Z,16.70
2022-09-07T05:54:21.695Z,16.90
2022-09-07T05:56:48.430Z,17.10
2022-09-07T05:59:15.194Z,17.30
2022-09-07T06:01:42.001Z,17.60
2022-09-07T06:04:08.811Z,17.70
2022-09-07T06:06:38.601Z,17.80
2022-09-07T06:09:06.457Z,17.90
2022-09-07T06:11:33.263Z,17.90
2022-09-07T06:14:00.019Z,18.00
2022-09-07T06:16:26.920Z,17.60
2022-09-07T06:18:53.840Z,17.40
2022-09-07T06:21:23.114Z,17.10
2022-09-07T06:23:50.638Z,17.20
2022-09-07T06:26:19.489Z,17.30
2022-09-07T06:28:50.208Z,17.10
2022-09-07T06:31:20.598Z,17.20
2022-09-07T06:33:48.770Z,17.20
2022-09-07T06:36:16.702Z,17.40
2022-09-07T06:38:44.044Z,17.50
2022-09-07T06:44:03.887Z,18.40
2022-09-07T06:49:17.655Z,19.10
2022-09-07T06:51:44.437Z,19.50
2022-09-07T06:56:59.740Z,20.00
2022-09-07T06:59:26.476Z,20.50
2022-09-07T07:01:53.329Z,21.40
2022-09-07T07:04:20.259Z,22.10
2022-09-07T07:06:46.997Z,21.90
2022-09-07T07:09:14.190Z,22.70
2022-09-07T07:11:44.713Z,23.30
2022-09-07T07:14:15.387Z,26.10
2022-09-07T07:16:42.474Z,27.70
2022-09-07T07:19:09.569Z,29.40
2022-09-07T07:21:55.275Z,27.80
2022-09-07T07:24:23.409Z,28.70
2022-09-07T07:26:50.145Z,30.80
2022-09-07T07:29:18.808Z,30.80
2022-09-07T07:31:46.939Z,30.90
2022-09-07T07:34:13.957Z,31.80
2022-09-07T07:36:40.849Z,31.80
2022-09-07T07:39:07.875Z,31.60
2022-09-07T07:44:21.551Z,30.00
2022-09-07T07:46:49.988Z,27.90
2022-09-07T07:49:17.328Z,28.00
2022-09-07T07:54:36.774Z,27.80
2022-09-07T07:57:07.225Z,26.70
2022-09-07T07:59:34.569Z,25.80
2022-09-07T08:02:04.587Z,26.20
2022-09-07T08:04:35.576Z,26.20
2022-09-07T08:07:09.594Z,27.20
2022-09-07T08:09:42.832Z,29.00
2022-09-07T08:12:11.438Z,29.80
2022-09-07T08:14:40.993Z,29.40
2022-09-07T08:17:09.565Z,29.00
2022-09-07T08:19:36.998Z,26.80
2022-09-07T08:22:04.258Z,27.70
2022-09-07T08:24:32.013Z,29.10
2022-09-07T08:26:59.102Z,29.00
2022-09-07T08:29:27.139Z,28.30
2022-09-07T08:31:54.575Z,28.00
2022-09-07T08:34:21.914Z,27.90
2022-09-07T08:36:48.895Z,28.20
2022-09-07T08:39:15.733Z,27.30
2022-09-07T08:41:45.617Z,26.80
2022-09-07T08:44:21.989Z,26.80
2022-09-07T08:47:19.488Z,26.80
2022-09-07T08:50:01.200Z,27.20
2022-09-07T08:52:37.505Z,26.70
2022-09-07T08:55:34.251Z,26.30
2022-09-07T08:58:45.341Z,26.40
2022-09-07T09:04:17.535Z,28.30
2022-09-07T09:06:11.413Z,27.00
2022-09-07T09:07:10.027Z,29.70
2022-09-07T09:09:58.592Z,33.30
2022-09-07T09:12:52.166Z,33.90
2022-09-07T09:15:26.363Z,34.20
2022-09-07T09:18:08.140Z,35.30
2022-09-07T09:20:52.358Z,35.30
2022-09-07T09:27:20.289Z,29.90
2022-09-07T09:29:53.781Z,28.90
2022-09-07T09:32:43.959Z,29.60
2022-09-07T09:35:37.303Z,30.50
2022-09-07T09:38:04.355Z,33.10
2022-09-07T09:40:33.906Z,33.40
2022-09-07T09:43:17.323Z,33.90
2022-09-07T09:48:43.754Z,33.50
2022-09-07T09:54:19.865Z,34.40
2022-09-07T09:56:52.065Z,33.00
2022-09-07T10:05:32.658Z,31.10
2022-09-07T10:08:16.730Z,33.30
2022-09-07T10:11:04.010Z,33.10
2022-09-07T10:13:36.888Z,31.40
2022-09-07T10:16:10.001Z,29.90
2022-09-07T10:18:57.993Z,29.20
2022-09-07T10:21:55.499Z,29.30
2022-09-07T10:24:25.417Z,28.40
2022-09-07T10:26:52.993Z,27.50
2022-09-07T10:29:30.690Z,28.00
2022-09-07T10:32:19.135Z,26.90
2022-09-07T10:35:05.318Z,26.50
2022-09-07T10:37:58.902Z,26.10
2022-09-07T10:40:34.141Z,25.80
2022-09-07T10:43:26.686Z,26.10
2022-09-07T10:46:14.187Z,26.00
2022-09-07T10:48:55.497Z,25.60
2022-09-07T10:51:54.904Z,25.40
2022-09-07T10:54:44.170Z,25.60
2022-09-07T10:57:40.505Z,25.80
2022-09-07T11:00:13.196Z,26.10
2022-09-07T11:05:57.457Z,26.00
2022-09-07T11:09:15.201Z,26.00
2022-09-07T11:12:00.733Z,25.90
2022-09-07T11:14:17.585Z,25.90
2022-09-07T11:16:55.542Z,25.60
2022-09-07T11:20:01.549Z,25.90
2022-09-07T11:22:32.895Z,26.00
2022-09-07T11:28:14.307Z,26.60
2022-09-07T11:30:47.870Z,26.10
2022-09-07T11:33:31.436Z,26.30
2022-09-07T11:36:12.051Z,26.50
2022-09-07T11:38:49.299Z,26.30
2022-09-07T11:41:27.088Z,26.10
2022-09-07T11:44:13.582Z,26.10
2022-09-07T11:46:45.852Z,26.40
2022-09-07T11:49:30.624Z,26.20
2022-09-07T11:52:05.037Z,25.90
2022-09-07T11:54:56.376Z,26.20
2022-09-07T11:57:46.969Z,26.30
2022-09-07T12:00:27.629Z,26.20
2022-09-07T12:03:07.258Z,26.20
2022-09-07T12:05:59.507Z,26.30
2022-09-07T12:08:35.796Z,26.30
2022-09-07T12:11:23.177Z,26.40
2022-09-07T12:14:10.628Z,26.40
2022-09-07T12:16:40.643Z,26.20
2022-09-07T12:19:21.307Z,26.20
2022-09-07T12:21:51.436Z,26.30
2022-09-07T12:24:33.735Z,26.50
2022-09-07T12:27:02.941Z,26.70
2022-09-07T12:29:31.618Z,26.70
2022-09-07T12:32:53.542Z,26.60
2022-09-07T12:34:56.022Z,26.70
2022-09-07T12:37:39.353Z,26.70
2022-09-07T12:40:47.576Z,26.60
2022-09-07T12:43:15.082Z,26.40
2022-09-07T12:45:42.485Z,26.70
2022-09-07T12:48:15.730Z,26.70
2022-09-07T12:51:16.540Z,26.70
2022-09-07T12:53:57.856Z,26.80
2022-09-07T12:56:42.450Z,26.60
2022-09-07T13:00:16.302Z,26.80
2022-09-07T13:10:32.415Z,26.70
2022-09-07T13:19:51.122Z,26.10
2022-09-07T13:22:44.919Z,26.20
2022-09-07T13:25:13.074Z,25.90
2022-09-07T13:29:04.899Z,25.90
2022-09-07T13:35:23.982Z,25.80
2022-09-07T13:38:02.852Z,25.90
2022-09-07T13:40:38.063Z,25.90
2022-09-07T13:43:05.964Z,25.90
2022-09-07T13:45:45.720Z,26.00
2022-09-07T13:48:28.833Z,26.10
2022-09-07T13:51:22.379Z,26.30
2022-09-07T13:54:14.908Z,26.20
2022-09-07T13:57:10.456Z,26.10
2022-09-07T13:59:40.554Z,26.00
2022-09-07T14:02:31.017Z,25.90
2022-09-07T14:05:00.461Z,26.00
2022-09-07T14:07:29.584Z,25.90
2022-09-07T14:10:09.206Z,25.90
2022-09-07T14:12:54.000Z,25.90
2022-09-07T14:33:05.259Z,25.90
2022-09-07T14:40:07.482Z,25.90
2022-09-07T14:42:39.082Z,25.70
2022-09-07T14:46:01.990Z,25.60
2022-09-07T15:07:00.914Z,25.60
2022-09-07T15:33:21.184Z,25.40
2022-09-07T15:35:55.018Z,25.30
2022-09-07T15:41:27.758Z,25.20
2022-09-07T15:44:06.606Z,25.00
2022-09-07T15:46:37.137Z,25.00
2022-09-07T15:49:21.625Z,25.10
2022-09-07T15:52:07.606Z,25.10
2022-09-07T15:55:13.305Z,24.90
2022-09-07T15:57:56.694Z,24.90
2022-09-07T16:00:26.790Z,24.80
2022-09-07T16:03:08.373Z,24.50
2022-09-07T16:05:39.910Z,24.50
2022-09-07T16:08:27.633Z,24.70
2022-09-07T16:11:05.811Z,24.80
2022-09-07T16:13:35.851Z,24.70
2022-09-07T16:16:05.914Z,24.80
2022-09-07T16:18:34.165Z,24.50
2022-09-07T16:21:18.910Z,24.30
2022-09-07T16:23:50.804Z,24.60
2022-09-07T16:26:20.681Z,24.60
2022-09-07T16:28:51.394Z,24.50
2022-09-07T16:31:29.329Z,24.40
2022-09-07T16:33:58.616Z,24.30
2022-09-07T16:36:28.191Z,24.10
2022-09-07T16:39:00.290Z,24.10
2022-09-07T16:41:34.018Z,24.00
2022-09-07T16:44:00.957Z,23.90
2022-09-07T16:46:31.839Z,23.80
2022-09-07T16:49:03.396Z,23.80
2022-09-07T16:51:36.685Z,23.60
2022-09-07T16:54:15.770Z,23.50
2022-09-07T16:56:44.865Z,23.40
2022-09-07T16:59:18.239Z,23.30
2022-09-07T17:01:48.200Z,23.20
2022-09-07T17:04:19.568Z,23.20
2022-09-07T17:06:48.260Z,23.10
2022-09-07T17:09:15.269Z,23.00
2022-09-07T17:11:46.871Z,22.80
2022-09-07T17:14:29.568Z,22.80
2022-09-07T17:17:05.155Z,22.70
2022-09-07T17:19:34.728Z,22.60
2022-09-07T17:22:02.514Z,22.60
2022-09-07T17:24:34.445Z,22.60
2022-09-07T17:27:03.845Z,22.50
2022-09-07T17:29:37.668Z,22.30
2022-09-07T17:34:58.040Z,22.20
2022-09-07T17:37:34.633Z,22.10
2022-09-07T17:40:10.024Z,22.00
2022-09-07T17:45:27.928Z,21.90
2022-09-07T17:47:57.517Z,21.80
2022-09-07T17:50:28.799Z,21.70
2022-09-07T17:52:55.634Z,21.80
2022-09-07T17:55:25.108Z,21.70
2022-09-07T17:58:01.142Z,21.70
2022-09-07T18:00:51.436Z,21.60
2022-09-07T18:03:21.458Z,21.60
2022-09-07T18:05:56.051Z,21.50
2022-09-07T18:08:32.594Z,21.50
2022-09-07T18:13:59.504Z,21.30
2022-09-07T18:16:34.366Z,21.20
2022-09-07T18:19:39.772Z,21.20
2022-09-07T18:22:04.825Z,21.10
2022-09-07T18:24:33.254Z,20.90
2022-09-07T18:27:21.866Z,20.70
2022-09-07T18:29:51.156Z,20.70
2022-09-07T18:32:17.995Z,20.70
2022-09-07T18:34:49.717Z,20.60
2022-09-07T18:37:22.440Z,20.60
2022-09-07T18:39:49.754Z,20.50
2022-09-07T18:42:26.403Z,20.30
2022-09-07T18:47:46.619Z,20.30
2022-09-07T18:50:25.135Z,20.30
2022-09-07T18:53:15.879Z,20.20
2022-09-07T18:55:46.181Z,20.00
2022-09-07T18:58:15.714Z,19.90
2022-09-07T19:01:16.553Z,19.90
2022-09-07T19:07:18.930Z,19.90
2022-09-07T19:09:45.800Z,19.90
2022-09-07T19:12:12.618Z,19.80
2022-09-07T19:14:39.355Z,19.90
2022-09-07T19:17:06.315Z,19.70
2022-09-07T19:19:35.767Z,19.70
2022-09-07T19:22:03.367Z,19.60
2022-09-07T19:24:31.805Z,19.50
2022-09-07T19:27:00.579Z,19.40
2022-09-07T19:29:29.067Z,19.30
2022-09-07T19:32:04.886Z,19.50
2022-09-07T19:34:40.123Z,19.60
2022-09-07T19:37:15.315Z,19.70
2022-09-07T19:39:45.693Z,19.60
2022-09-07T19:42:12.999Z,19.50
2022-09-07T19:44:40.352Z,19.50
2022-09-07T19:48:10.403Z,19.40
2022-09-07T19:49:58.009Z,19.40
2022-09-07T19:52:35.492Z,19.40
2022-09-07T19:55:04.179Z,19.40
2022-09-07T19:57:33.587Z,19.50
2022-09-07T20:00:02.159Z,19.40
2022-09-07T20:02:44.269Z,19.40
2022-09-07T20:05:16.763Z,19.30
2022-09-07T20:07:43.919Z,19.30
2022-09-07T20:10:13.116Z,19.20
2022-09-07T20:12:44.242Z,19.00
2022-09-07T20:15:11.809Z,18.90
2022-09-07T20:17:40.268Z,18.80
2022-09-07T20:20:10.193Z,18.90
2022-09-07T20:22:37.349Z,19.20
2022-09-07T20:25:13.142Z,19.10
2022-09-07T20:27:43.106Z,18.90
2022-09-07T20:30:11.405Z,18.80
2022-09-07T20:32:38.646Z,18.70
2022-09-07T20:35:06.217Z,18.60
2022-09-07T20:37:34.273Z,18.70
2022-09-07T20:40:02.416Z,18.80
2022-09-07T20:42:33.374Z,18.90
2022-09-07T20:45:00.533Z,19.00
2022-09-07T20:47:29.043Z,18.80
2022-09-07T20:49:59.850Z,18.60
2022-09-07T20:52:27.215Z,18.40
2022-09-07T20:54:54.563Z,18.50
2022-09-07T20:57:21.822Z,18.40
2022-09-07T21:00:19.595Z,18.60
2022-09-07T21:03:31.154Z,18.40
2022-09-07T21:06:10.097Z,18.30
2022-09-07T21:09:03.367Z,18.30
2022-09-07T21:11:45.006Z,18.30
2022-09-07T21:17:41.304Z,18.10
2022-09-07T21:20:08.759Z,18.00
2022-09-07T21:22:35.906Z,17.90
2022-09-07T21:25:03.062Z,18.00
2022-09-07T21:27:37.710Z,17.90
2022-09-07T21:30:06.598Z,17.90
2022-09-07T21:32:33.824Z,17.90
2022-09-07T21:35:00.976Z,18.00
2022-09-07T21:37:28.024Z,18.00
2022-09-07T21:39:57.563Z,18.10
2022-09-07T21:42:24.685Z,18.30
2022-09-07T21:44:51.931Z,18.50
2022-09-07T21:47:19.088Z,18.50
2022-09-07T21:49:46.230Z,18.50
2022-09-07T21:52:13.489Z,18.60
2022-09-07T21:54:40.647Z,18.70
2022-09-07T21:57:07.997Z,18.50
2022-09-07T21:59:35.156Z,18.60
2022-09-07T22:02:02.799Z,18.60
2022-09-07T22:04:33.233Z,18.60
2022-09-07T22:07:00.516Z,18.60
2022-09-07T22:09:30.291Z,18.60
2022-09-07T22:11:59.505Z,18.40
2022-09-07T22:14:29.473Z,18.30
2022-09-07T22:20:13.364Z,18.30
2022-09-07T22:22:44.823Z,18.20
2022-09-07T22:25:16.659Z,18.20
2022-09-07T22:27:54.389Z,18.30
2022-09-07T22:30:25.844Z,18.20
2022-09-07T22:33:19.677Z,18.20
2022-09-07T22:35:51.697Z,18.10
2022-09-07T22:38:21.809Z,18.10
2022-09-07T22:40:48.625Z,18.10
2022-09-07T22:43:24.983Z,18.10
2022-09-07T22:45:56.432Z,18.20
2022-09-07T22:48:23.139Z,18.30
2022-09-07T22:51:00.287Z,18.20
2022-09-07T22:53:42.955Z,18.30
2022-09-07T22:56:29.869Z,18.40
2022-09-07T22:59:01.406Z,18.60
2022-09-07T23:01:34.536Z,18.80
2022-09-07T23:04:02.034Z,18.90
2022-09-07T23:06:39.675Z,18.90
2022-09-07T23:09:09.195Z,18.90
2022-09-07T23:11:36.238Z,18.90
2022-09-07T23:14:05.368Z,18.80
2022-09-07T23:16:41.839Z,18.80
2022-09-07T23:19:11.979Z,18.80
2022-09-07T23:21:39.702Z,18.80
2022-09-07T23:24:07.152Z,18.70
2022-09-07T23:26:33.879Z,18.90
2022-09-07T23:29:05.656Z,19.00
2022-09-07T23:31:41.765Z,19.00
2022-09-07T23:34:09.258Z,19.00
2022-09-07T23:36:39.581Z,19.00
2022-09-07T23:39:11.023Z,19.00
2022-09-07T23:41:37.876Z,19.00
2022-09-07T23:44:04.672Z,19.00
2022-09-07T23:47:19.067Z,18.90
2022-09-07T23:50:28.579Z,18.80
2022-09-07T23:54:05.985Z,18.70
2022-09-07T23:58:18.034Z,18.60
